sensor_id;sensor_type;location;lat;lon;timestamp;pressure;altitude;pressure_sealevel;temperature;humidity
38022;BME280;23832;43.216;27.946;2022-08-11T00:01:59;100558.94;;;23.20;100.00
38022;BME280;23832;43.216;27.946;2022-08-11T00:04:03;100554.56;;;23.14;100.00
38022;BME280;23832;43.216;27.946;2022-08-11T00:06:06;100571.03;;;23.23;100.00
38022;BME280;23832;43.216;27.946;2022-08-11T00:08:09;100565.94;;;23.21;100.00
38022;BME280;23832;43.216;27.946;2022-08-11T00:10:14;100542.78;;;23.20;100.00
38022;BME280;23832;43.216;27.946;2022-08-11T00:12:17;100551.94;;;23.25;100.00
38022;BME280;23832;43.216;27.946;2022-08-11T00:14:21;100543.88;;;23.25;100.00
38022;BME280;23832;43.216;27.946;2022-08-11T00:16:26;100552.00;;;23.30;100.00
38022;BME280;23832;43.216;27.946;2022-08-11T00:18:38;100546.91;;;23.33;100.00
38022;BME280;23832;43.216;27.946;2022-08-11T00:20:43;100544.22;;;23.33;100.00
38022;BME280;23832;43.216;27.946;2022-08-11T00:22:46;100532.84;;;23.26;100.00
38022;BME280;23832;43.216;27.946;2022-08-11T00:24:49;100544.19;;;23.28;100.00
38022;BME280;23832;43.216;27.946;2022-08-11T00:26:53;100542.84;;;23.31;100.00
38022;BME280;23832;43.216;27.946;2022-08-11T00:28:56;100544.47;;;23.32;100.00
38022;BME280;23832;43.216;27.946;2022-08-11T00:31:20;100551.19;;;23.29;100.00
38022;BME280;23832;43.216;27.946;2022-08-11T00:33:27;100548.75;;;23.28;100.00
38022;BME280;23832;43.216;27.946;2022-08-11T00:35:34;100549.00;;;23.26;100.00
38022;BME280;23832;43.216;27.946;2022-08-11T00:37:37;100567.00;;;23.26;100.00
38022;BME280;23832;43.216;27.946;2022-08-11T00:39:42;100558.94;;;23.20;100.00
38022;BME280;23832;43.216;27.946;2022-08-11T00:41:58;100563.25;;;23.27;100.00
38022;BME280;23832;43.216;27.946;2022-08-11T00:44:20;100579.91;;;23.23;100.00
38022;BME280;23832;43.216;27.946;2022-08-11T00:46:34;100590.13;;;23.21;100.00
38022;BME280;23832;43.216;27.946;2022-08-11T00:48:50;100591.75;;;23.22;100.00
38022;BME280;23832;43.216;27.946;2022-08-11T00:51:12;100607.34;;;23.26;100.00
38022;BME280;23832;43.216;27.946;2022-08-11T00:53:34;100613.00;;;23.24;100.00
38022;BME280;23832;43.216;27.946;2022-08-11T00:56:11;100623.47;;;23.20;100.00
38022;BME280;23832;43.216;27.946;2022-08-11T01:01:08;100629.22;;;23.02;100.00
38022;BME280;23832;43.216;27.946;2022-08-11T01:03:31;100644.94;;;22.88;100.00
38022;BME280;23832;43.216;27.946;2022-08-11T01:06:16;100640.53;;;22.82;100.00
38022;BME280;23832;43.216;27.946;2022-08-11T01:11:46;100640.03;;;22.58;100.00
38022;BME280;23832;43.216;27.946;2022-08-11T01:14:21;100631.44;;;22.56;100.00
38022;BME280;23832;43.216;27.946;2022-08-11T01:27:49;100624.38;;;22.77;100.00
38022;BME280;23832;43.216;27.946;2022-08-11T01:30:21;100606.91;;;22.75;100.00
38022;BME280;23832;43.216;27.946;2022-08-11T01:35:30;100609.44;;;22.59;100.00
38022;BME280;23832;43.216;27.946;2022-08-11T01:38:07;100610.31;;;22.43;100.00
38022;BME280;23832;43.216;27.946;2022-08-11T01:40:38;100595.78;;;22.39;100.00
38022;BME280;23832;43.216;27.946;2022-08-11T01:43:09;100601.72;;;22.19;100.00
38022;BME280;23832;43.216;27.946;2022-08-11T01:45:36;100573.94;;;22.08;100.00
38022;BME280;23832;43.216;27.946;2022-08-11T01:47:48;100591.50;;;21.99;100.00
38022;BME280;23832;43.216;27.946;2022-08-11T01:50:06;100592.91;;;22.02;100.00
38022;BME280;23832;43.216;27.946;2022-08-11T01:52:18;100581.97;;;22.08;100.00
38022;BME280;23832;43.216;27.946;2022-08-11T01:54:27;100583.06;;;22.07;100.00
38022;BME280;23832;43.216;27.946;2022-08-11T01:56:45;100587.63;;;21.90;100.00
38022;BME280;23832;43.216;27.946;2022-08-11T01:58:58;100588.13;;;21.87;100.00
38022;BME280;23832;43.216;27.946;2022-08-11T02:01:11;100588.94;;;21.88;100.00
38022;BME280;23832;43.216;27.946;2022-08-11T02:03:21;100591.88;;;21.86;100.00
38022;BME280;23832;43.216;27.946;2022-08-11T02:05:54;100592.63;;;21.81;100.00
38022;BME280;23832;43.216;27.946;2022-08-11T02:08:09;100580.59;;;21.84;100.00
38022;BME280;23832;43.216;27.946;2022-08-11T02:10:21;100553.22;;;21.65;100.00
38022;BME280;23832;43.216;27.946;2022-08-11T02:12:46;100591.53;;;21.82;100.00
38022;BME280;23832;43.216;27.946;2022-08-11T02:14:59;100588.88;;;21.82;100.00
38022;BME280;23832;43.216;27.946;2022-08-11T02:17:14;100582.69;;;21.82;100.00
38022;BME280;23832;43.216;27.946;2022-08-11T02:19:25;100591.50;;;21.77;100.00
38022;BME280;23832;43.216;27.946;2022-08-11T02:22:09;100590.75;;;21.82;100.00
38022;BME280;23832;43.216;27.946;2022-08-11T02:24:40;100589.75;;;21.88;100.00
38022;BME280;23832;43.216;27.946;2022-08-11T02:26:47;100594.06;;;21.89;100.00
38022;BME280;23832;43.216;27.946;2022-08-11T02:29:02;100586.34;;;21.93;100.00
38022;BME280;23832;43.216;27.946;2022-08-11T02:31:14;100582.59;;;21.94;100.00
38022;BME280;23832;43.216;27.946;2022-08-11T02:33:35;100583.97;;;21.96;100.00
38022;BME280;23832;43.216;27.946;2022-08-11T02:35:44;100589.63;;;22.00;100.00
38022;BME280;23832;43.216;27.946;2022-08-11T02:37:52;100582.38;;;22.00;100.00
38022;BME280;23832;43.216;27.946;2022-08-11T02:40:15;100588.09;;;22.04;100.00
38022;BME280;23832;43.216;27.946;2022-08-11T02:42:29;100595.59;;;22.02;100.00
38022;BME280;23832;43.216;27.946;2022-08-11T02:44:40;100597.50;;;22.06;100.00
38022;BME280;23832;43.216;27.946;2022-08-11T02:46:57;100598.72;;;22.16;100.00
38022;BME280;23832;43.216;27.946;2022-08-11T02:49:13;100596.34;;;22.19;100.00
38022;BME280;23832;43.216;27.946;2022-08-11T02:51:41;100592.84;;;22.19;100.00
38022;BME280;23832;43.216;27.946;2022-08-11T02:53:50;100599.34;;;22.23;100.00
38022;BME280;23832;43.216;27.946;2022-08-11T02:56:04;100594.28;;;22.26;100.00
38022;BME280;23832;43.216;27.946;2022-08-11T02:58:13;100590.31;;;22.29;100.00
38022;BME280;23832;43.216;27.946;2022-08-11T03:00:17;100588.97;;;22.31;100.00
38022;BME280;23832;43.216;27.946;2022-08-11T03:02:39;100597.88;;;22.37;100.00
38022;BME280;23832;43.216;27.946;2022-08-11T03:04:51;100596.34;;;22.41;100.00
38022;BME280;23832;43.216;27.946;2022-08-11T03:07:13;100597.41;;;22.40;100.00
38022;BME280;23832;43.216;27.946;2022-08-11T03:09:26;100600.94;;;22.46;100.00
38022;BME280;23832;43.216;27.946;2022-08-11T03:11:46;100588.38;;;22.51;100.00
38022;BME280;23832;43.216;27.946;2022-08-11T03:14:15;100586.75;;;22.50;100.00
38022;BME280;23832;43.216;27.946;2022-08-11T03:16:55;100606.44;;;22.56;100.00
38022;BME280;23832;43.216;27.946;2022-08-11T03:19:10;100603.50;;;22.57;100.00
38022;BME280;23832;43.216;27.946;2022-08-11T03:21:20;100598.88;;;22.53;100.00
38022;BME280;23832;43.216;27.946;2022-08-11T03:23:28;100598.56;;;22.49;100.00
38022;BME280;23832;43.216;27.946;2022-08-11T03:25:37;100599.13;;;22.51;100.00
38022;BME280;23832;43.216;27.946;2022-08-11T03:27:52;100604.25;;;22.53;100.00
38022;BME280;23832;43.216;27.946;2022-08-11T03:30:04;100599.38;;;22.50;100.00
38022;BME280;23832;43.216;27.946;2022-08-11T03:32:10;100604.75;;;22.50;100.00
38022;BME280;23832;43.216;27.946;2022-08-11T03:34:22;100597.88;;;22.37;100.00
38022;BME280;23832;43.216;27.946;2022-08-11T03:36:53;100602.34;;;22.48;100.00
38022;BME280;23832;43.216;27.946;2022-08-11T03:39:06;100611.50;;;22.52;100.00
38022;BME280;23832;43.216;27.946;2022-08-11T03:41:18;100607.13;;;22.46;100.00
38022;BME280;23832;43.216;27.946;2022-08-11T03:43:53;100613.44;;;22.35;100.00
38022;BME280;23832;43.216;27.946;2022-08-11T03:46:04;100609.69;;;22.36;100.00
38022;BME280;23832;43.216;27.946;2022-08-11T03:48:15;100614.63;;;22.44;100.00
38022;BME280;23832;43.216;27.946;2022-08-11T03:50:28;100606.63;;;22.49;100.00
38022;BME280;23832;43.216;27.946;2022-08-11T03:52:43;100613.13;;;22.53;100.00
38022;BME280;23832;43.216;27.946;2022-08-11T03:54:54;100602.72;;;22.62;100.00
38022;BME280;23832;43.216;27.946;2022-08-11T03:57:26;100606.22;;;22.62;100.00
38022;BME280;23832;43.216;27.946;2022-08-11T04:00:09;100605.78;;;22.71;100.00
38022;BME280;23832;43.216;27.946;2022-08-11T04:02:42;100604.66;;;22.66;100.00
38022;BME280;23832;43.216;27.946;2022-08-11T04:05:04;100610.25;;;22.60;100.00
38022;BME280;23832;43.216;27.946;2022-08-11T04:10:24;100601.38;;;22.59;100.00
38022;BME280;23832;43.216;27.946;2022-08-11T04:12:45;100594.38;;;22.58;100.00
38022;BME280;23832;43.216;27.946;2022-08-11T04:15:16;100599.13;;;22.51;100.00
38022;BME280;23832;43.216;27.946;2022-08-11T04:17:55;100594.75;;;22.45;100.00
38022;BME280;23832;43.216;27.946;2022-08-11T04:20:22;100596.25;;;22.36;100.00
38022;BME280;23832;43.216;27.946;2022-08-11T04:25:26;100606.31;;;22.46;100.00
38022;BME280;23832;43.216;27.946;2022-08-11T04:28:05;100602.88;;;22.50;100.00
38022;BME280;23832;43.216;27.946;2022-08-11T04:30:17;100611.66;;;22.41;100.00
38022;BME280;23832;43.216;27.946;2022-08-11T04:32:35;100619.56;;;22.52;100.00
38022;BME280;23832;43.216;27.946;2022-08-11T04:34:50;100604.56;;;22.56;100.00
38022;BME280;23832;43.216;27.946;2022-08-11T04:42:06;100609.63;;;22.80;100.00
38022;BME280;23832;43.216;27.946;2022-08-11T04:45:09;100610.75;;;22.84;100.00
38022;BME280;23832;43.216;27.946;2022-08-11T04:47:46;100615.09;;;22.85;100.00
38022;BME280;23832;43.216;27.946;2022-08-11T04:50:24;100613.44;;;22.84;100.00
38022;BME280;23832;43.216;27.946;2022-08-11T04:53:28;100606.44;;;22.83;100.00
38022;BME280;23832;43.216;27.946;2022-08-11T04:56:05;100621.44;;;22.79;100.00
38022;BME280;23832;43.216;27.946;2022-08-11T04:58:43;100624.13;;;22.79;100.00
38022;BME280;23832;43.216;27.946;2022-08-11T05:01:22;100611.50;;;22.79;100.00
38022;BME280;23832;43.216;27.946;2022-08-11T05:04:10;100614.44;;;22.78;100.00
38022;BME280;23832;43.216;27.946;2022-08-11T05:09:38;100626.81;;;22.79;100.00
38022;BME280;23832;43.216;27.946;2022-08-11T05:12:18;100631.13;;;22.80;100.00
38022;BME280;23832;43.216;27.946;2022-08-11T05:14:29;100632.03;;;22.85;100.00
38022;BME280;23832;43.216;27.946;2022-08-11T05:16:51;100633.44;;;22.93;100.00
38022;BME280;23832;43.216;27.946;2022-08-11T05:19:14;100635.41;;;23.03;100.00
38022;BME280;23832;43.216;27.946;2022-08-11T05:21:35;100645.00;;;23.20;100.00
38022;BME280;23832;43.216;27.946;2022-08-11T05:24:01;100641.31;;;23.32;100.00
38022;BME280;23832;43.216;27.946;2022-08-11T05:26:23;100634.84;;;23.33;100.00
38022;BME280;23832;43.216;27.946;2022-08-11T05:28:51;100637.53;;;23.33;100.00
38022;BME280;23832;43.216;27.946;2022-08-11T05:31:14;100650.31;;;23.47;100.00
38022;BME280;23832;43.216;27.946;2022-08-11T05:33:35;100638.50;;;23.54;100.00
38022;BME280;23832;43.216;27.946;2022-08-11T05:36:07;100641.38;;;23.74;100.00
38022;BME280;23832;43.216;27.946;2022-08-11T05:38:19;100647.66;;;23.90;100.00
38022;BME280;23832;43.216;27.946;2022-08-11T05:40:46;100660.66;;;24.08;100.00
38022;BME280;23832;43.216;27.946;2022-08-11T05:43:12;100661.84;;;24.27;100.00
38022;BME280;23832;43.216;27.946;2022-08-11T05:45:33;100656.03;;;24.46;100.00
38022;BME280;23832;43.216;27.946;2022-08-11T05:47:53;100650.09;;;24.49;100.00
38022;BME280;23832;43.216;27.946;2022-08-11T05:50:14;100655.28;;;24.66;100.00
38022;BME280;23832;43.216;27.946;2022-08-11T05:52:37;100656.09;;;24.76;100.00
38022;BME280;23832;43.216;27.946;2022-08-11T05:55:01;100651.84;;;24.90;100.00
38022;BME280;23832;43.216;27.946;2022-08-11T05:57:22;100663.22;;;25.08;100.00
38022;BME280;23832;43.216;27.946;2022-08-11T05:59:28;100652.69;;;25.27;100.00
38022;BME280;23832;43.216;27.946;2022-08-11T06:01:32;100659.41;;;25.50;100.00
38022;BME280;23832;43.216;27.946;2022-08-11T06:03:42;100657.78;;;25.69;100.00
38022;BME280;23832;43.216;27.946;2022-08-11T06:05:59;100657.78;;;25.89;100.00
38022;BME280;23832;43.216;27.946;2022-08-11T06:08:03;100650.19;;;26.07;100.00
38022;BME280;23832;43.216;27.946;2022-08-11T06:10:07;100646.88;;;26.20;100.00
38022;BME280;23832;43.216;27.946;2022-08-11T06:12:16;100662.75;;;26.37;100.00
38022;BME280;23832;43.216;27.946;2022-08-11T06:14:21;100653.25;;;26.49;100.00
38022;BME280;23832;43.216;27.946;2022-08-11T06:16:26;100647.75;;;26.65;100.00
38022;BME280;23832;43.216;27.946;2022-08-11T06:18:30;100650.75;;;26.63;95.09
38022;BME280;23832;43.216;27.946;2022-08-11T06:20:44;100650.16;;;26.71;96.50
38022;BME280;23832;43.216;27.946;2022-08-11T06:22:54;100655.22;;;26.83;97.83
38022;BME280;23832;43.216;27.946;2022-08-11T06:25:00;100645.72;;;26.91;94.41
38022;BME280;23832;43.216;27.946;2022-08-11T06:27:03;100650.50;;;27.04;93.93
38022;BME280;23832;43.216;27.946;2022-08-11T06:29:09;100644.75;;;27.15;90.59
38022;BME280;23832;43.216;27.946;2022-08-11T06:31:19;100639.78;;;27.28;89.40
38022;BME280;23832;43.216;27.946;2022-08-11T06:33:30;100656.72;;;27.38;83.65
38022;BME280;23832;43.216;27.946;2022-08-11T06:35:47;100648.75;;;27.52;84.01
38022;BME280;23832;43.216;27.946;2022-08-11T06:38:02;100641.59;;;27.66;80.78
38022;BME280;23832;43.216;27.946;2022-08-11T06:40:12;100634.13;;;27.82;81.77
38022;BME280;23832;43.216;27.946;2022-08-11T06:42:31;100640.69;;;28.00;79.20
38022;BME280;23832;43.216;27.946;2022-08-11T06:44:41;100625.19;;;28.06;79.53
38022;BME280;23832;43.216;27.946;2022-08-11T06:46:46;100643.59;;;28.33;75.10
38022;BME280;23832;43.216;27.946;2022-08-11T06:48:52;100643.44;;;28.43;74.56
38022;BME280;23832;43.216;27.946;2022-08-11T06:50:58;100641.03;;;28.60;72.92
38022;BME280;23832;43.216;27.946;2022-08-11T06:53:14;100634.16;;;28.68;70.01
38022;BME280;23832;43.216;27.946;2022-08-11T06:55:23;100643.97;;;28.82;69.81
38022;BME280;23832;43.216;27.946;2022-08-11T06:57:43;100645.38;;;28.99;68.89
38022;BME280;23832;43.216;27.946;2022-08-11T07:00:06;100644.63;;;29.12;66.67
38022;BME280;23832;43.216;27.946;2022-08-11T07:02:30;100638.44;;;29.25;64.65
38022;BME280;23832;43.216;27.946;2022-08-11T07:04:40;100649.34;;;29.39;63.59
38022;BME280;23832;43.216;27.946;2022-08-11T07:06:54;100650.81;;;29.50;61.80
38022;BME280;23832;43.216;27.946;2022-08-11T07:09:29;100647.59;;;29.62;60.13
38022;BME280;23832;43.216;27.946;2022-08-11T07:11:59;100652.03;;;29.58;57.17
38022;BME280;23832;43.216;27.946;2022-08-11T07:14:24;100655.47;;;29.77;59.29
38022;BME280;23832;43.216;27.946;2022-08-11T07:16:53;100652.44;;;29.92;58.98
38022;BME280;23832;43.216;27.946;2022-08-11T07:19:16;100644.50;;;29.96;57.56
38022;BME280;23832;43.216;27.946;2022-08-11T07:21:39;100654.19;;;30.16;57.07
38022;BME280;23832;43.216;27.946;2022-08-11T07:24:01;100648.22;;;30.28;56.08
38022;BME280;23832;43.216;27.946;2022-08-11T07:26:25;100660.22;;;30.40;55.60
38022;BME280;23832;43.216;27.946;2022-08-11T07:28:48;100653.66;;;30.41;54.56
38022;BME280;23832;43.216;27.946;2022-08-11T07:31:03;100664.94;;;30.48;53.73
38022;BME280;23832;43.216;27.946;2022-08-11T07:33:12;100667.22;;;30.55;54.16
38022;BME280;23832;43.216;27.946;2022-08-11T07:35:20;100661.38;;;30.62;53.91
38022;BME280;23832;43.216;27.946;2022-08-11T07:37:25;100659.56;;;30.71;53.47
38022;BME280;23832;43.216;27.946;2022-08-11T07:39:32;100658.19;;;30.82;53.06
38022;BME280;23832;43.216;27.946;2022-08-11T07:41:34;100667.25;;;30.91;52.50
38022;BME280;23832;43.216;27.946;2022-08-11T07:43:38;100655.50;;;31.04;52.85
38022;BME280;23832;43.216;27.946;2022-08-11T07:45:42;100641.53;;;31.20;51.99
38022;BME280;23832;43.216;27.946;2022-08-11T07:48:04;100650.28;;;31.30;50.65
38022;BME280;23832;43.216;27.946;2022-08-11T07:50:25;100654.66;;;31.40;50.58
38022;BME280;23832;43.216;27.946;2022-08-11T07:52:45;100657.28;;;31.54;50.67
38022;BME280;23832;43.216;27.946;2022-08-11T07:54:47;100655.09;;;31.64;50.29
38022;BME280;23832;43.216;27.946;2022-08-11T07:56:50;100658.53;;;31.79;50.10
38022;BME280;23832;43.216;27.946;2022-08-11T07:58:54;100650.59;;;31.91;49.50
38022;BME280;23832;43.216;27.946;2022-08-11T08:01:19;100648.50;;;31.97;48.07
38022;BME280;23832;43.216;27.946;2022-08-11T08:03:40;100656.25;;;32.03;47.82
38022;BME280;23832;43.216;27.946;2022-08-11T08:06:00;100655.63;;;32.15;48.28
38022;BME280;23832;43.216;27.946;2022-08-11T08:08:19;100641.84;;;32.20;47.78
38022;BME280;23832;43.216;27.946;2022-08-11T08:10:41;100639.66;;;32.31;47.59
38022;BME280;23832;43.216;27.946;2022-08-11T08:13:01;100644.16;;;32.44;47.29
38022;BME280;23832;43.216;27.946;2022-08-11T08:15:22;100639.22;;;32.55;46.77
38022;BME280;23832;43.216;27.946;2022-08-11T08:17:45;100650.94;;;32.64;45.73
38022;BME280;23832;43.216;27.946;2022-08-11T08:19:57;100645.47;;;32.72;46.03
38022;BME280;23832;43.216;27.946;2022-08-11T08:21:59;100650.31;;;32.84;45.67
38022;BME280;23832;43.216;27.946;2022-08-11T08:24:03;100642.59;;;32.95;45.29
38022;BME280;23832;43.216;27.946;2022-08-11T08:26:13;100636.97;;;33.00;44.01
38022;BME280;23832;43.216;27.946;2022-08-11T08:28:34;100639.69;;;33.17;43.92
38022;BME280;23832;43.216;27.946;2022-08-11T08:30:36;100638.88;;;33.25;44.52
38022;BME280;23832;43.216;27.946;2022-08-11T08:32:50;100636.72;;;33.48;43.44
38022;BME280;23832;43.216;27.946;2022-08-11T08:34:54;100631.53;;;33.64;43.14
38022;BME280;23832;43.216;27.946;2022-08-11T08:37:00;100635.78;;;33.82;43.10
38022;BME280;23832;43.216;27.946;2022-08-11T08:39:02;100631.19;;;34.04;42.27
38022;BME280;23832;43.216;27.946;2022-08-11T08:41:05;100634.91;;;34.29;41.96
38022;BME280;23832;43.216;27.946;2022-08-11T08:43:11;100636.34;;;34.56;41.09
38022;BME280;23832;43.216;27.946;2022-08-11T08:45:14;100627.13;;;34.81;40.62
38022;BME280;23832;43.216;27.946;2022-08-11T08:47:18;100625.16;;;35.03;39.56
38022;BME280;23832;43.216;27.946;2022-08-11T08:49:30;100625.22;;;35.27;38.76
38022;BME280;23832;43.216;27.946;2022-08-11T08:51:36;100627.44;;;35.34;37.96
38022;BME280;23832;43.216;27.946;2022-08-11T08:53:42;100626.22;;;35.68;37.34
38022;BME280;23832;43.216;27.946;2022-08-11T08:55:47;100623.94;;;35.82;36.85
38022;BME280;23832;43.216;27.946;2022-08-11T08:57:53;100624.97;;;36.02;36.79
38022;BME280;23832;43.216;27.946;2022-08-11T09:00:01;100619.38;;;36.23;36.81
38022;BME280;23832;43.216;27.946;2022-08-11T09:02:05;100619.13;;;36.40;35.82
38022;BME280;23832;43.216;27.946;2022-08-11T09:04:12;100620.72;;;36.41;34.36
38022;BME280;23832;43.216;27.946;2022-08-11T09:06:17;100617.34;;;36.60;35.51
38022;BME280;23832;43.216;27.946;2022-08-11T09:08:21;100616.25;;;36.77;35.47
38022;BME280;23832;43.216;27.946;2022-08-11T09:10:24;100621.00;;;36.92;35.06
38022;BME280;23832;43.216;27.946;2022-08-11T09:12:29;100609.50;;;37.02;34.74
38022;BME280;23832;43.216;27.946;2022-08-11T09:14:35;100616.59;;;37.19;34.82
38022;BME280;23832;43.216;27.946;2022-08-11T09:16:55;100605.91;;;37.30;34.15
38022;BME280;23832;43.216;27.946;2022-08-11T09:18:59;100586.13;;;37.24;33.10
38022;BME280;23832;43.216;27.946;2022-08-11T09:21:03;100603.59;;;37.16;33.46
38022;BME280;23832;43.216;27.946;2022-08-11T09:23:07;100607.06;;;37.13;33.77
38022;BME280;23832;43.216;27.946;2022-08-11T09:25:30;100601.88;;;37.11;33.62
38022;BME280;23832;43.216;27.946;2022-08-11T09:27:51;100616.34;;;37.08;33.87
38022;BME280;23832;43.216;27.946;2022-08-11T09:29:57;100604.19;;;37.09;33.76
38022;BME280;23832;43.216;27.946;2022-08-11T09:31:59;100603.84;;;37.11;33.35
38022;BME280;23832;43.216;27.946;2022-08-11T09:34:02;100590.25;;;37.02;33.17
38022;BME280;23832;43.216;27.946;2022-08-11T09:36:05;100601.00;;;37.07;33.47
38022;BME280;23832;43.216;27.946;2022-08-11T09:38:25;100599.25;;;37.15;33.14
38022;BME280;23832;43.216;27.946;2022-08-11T09:40:46;100591.00;;;37.15;33.10
38022;BME280;23832;43.216;27.946;2022-08-11T09:42:50;100599.59;;;37.13;32.66
38022;BME280;23832;43.216;27.946;2022-08-11T09:45:10;100601.88;;;37.11;32.24
38022;BME280;23832;43.216;27.946;2022-08-11T09:47:16;100599.84;;;37.08;31.86
38022;BME280;23832;43.216;27.946;2022-08-11T09:49:19;100581.31;;;37.05;32.56
38022;BME280;23832;43.216;27.946;2022-08-11T09:51:22;100594.53;;;37.15;32.73
38022;BME280;23832;43.216;27.946;2022-08-11T09:53:34;100582.88;;;37.34;32.18
38022;BME280;23832;43.216;27.946;2022-08-11T09:55:37;100591.38;;;37.45;32.41
38022;BME280;23832;43.216;27.946;2022-08-11T09:57:43;100588.09;;;37.55;32.43
38022;BME280;23832;43.216;27.946;2022-08-11T10:00:06;100586.25;;;37.59;31.93
38022;BME280;23832;43.216;27.946;2022-08-11T10:02:09;100575.41;;;37.66;31.91
38022;BME280;23832;43.216;27.946;2022-08-11T10:04:13;100579.91;;;37.74;31.83
38022;BME280;23832;43.216;27.946;2022-08-11T10:06:16;100575.06;;;37.84;31.87
38022;BME280;23832;43.216;27.946;2022-08-11T10:08:39;100574.31;;;37.87;31.22
38022;BME280;23832;43.216;27.946;2022-08-11T10:10:43;100573.75;;;37.97;31.43
38022;BME280;23832;43.216;27.946;2022-08-11T10:12:49;100576.69;;;38.04;30.98
38022;BME280;23832;43.216;27.946;2022-08-11T10:14:53;100574.63;;;38.01;30.37
38022;BME280;23832;43.216;27.946;2022-08-11T10:17:15;100579.34;;;38.00;30.58
38022;BME280;23832;43.216;27.946;2022-08-11T10:19:20;100577.03;;;38.02;30.73
38022;BME280;23832;43.216;27.946;2022-08-11T10:21:27;100579.13;;;38.09;30.06
38022;BME280;23832;43.216;27.946;2022-08-11T10:23:32;100579.84;;;38.06;30.45
38022;BME280;23832;43.216;27.946;2022-08-11T10:25:55;100580.81;;;38.14;30.21
38022;BME280;23832;43.216;27.946;2022-08-11T10:28:15;100575.22;;;38.10;30.18
38022;BME280;23832;43.216;27.946;2022-08-11T10:30:17;100575.94;;;38.07;30.17
38022;BME280;23832;43.216;27.946;2022-08-11T10:32:37;100581.44;;;38.07;30.75
38022;BME280;23832;43.216;27.946;2022-08-11T10:34:58;100576.47;;;38.13;30.32
38022;BME280;23832;43.216;27.946;2022-08-11T10:37:02;100569.38;;;38.12;30.50
38022;BME280;23832;43.216;27.946;2022-08-11T10:39:05;100584.19;;;38.07;29.62
38022;BME280;23832;43.216;27.946;2022-08-11T10:41:09;100574.56;;;37.97;29.71
38022;BME280;23832;43.216;27.946;2022-08-11T10:43:28;100574.31;;;37.87;29.86
38022;BME280;23832;43.216;27.946;2022-08-11T10:45:36;100577.16;;;37.74;29.10
38022;BME280;23832;43.216;27.946;2022-08-11T10:47:57;100576.72;;;37.72;29.94
38022;BME280;23832;43.216;27.946;2022-08-11T10:50:08;100572.38;;;37.71;29.90
38022;BME280;23832;43.216;27.946;2022-08-11T10:52:28;100557.03;;;37.70;30.41
38022;BME280;23832;43.216;27.946;2022-08-11T10:54:47;100563.16;;;37.64;30.03
38022;BME280;23832;43.216;27.946;2022-08-11T10:57:09;100554.47;;;37.77;30.48
38022;BME280;23832;43.216;27.946;2022-08-11T10:59:29;100560.94;;;37.85;30.71
38022;BME280;23832;43.216;27.946;2022-08-11T11:01:33;100562.31;;;37.95;30.60
38022;BME280;23832;43.216;27.946;2022-08-11T11:03:38;100548.00;;;38.05;30.21
38022;BME280;23832;43.216;27.946;2022-08-11T11:05:43;100552.69;;;38.04;29.65
38022;BME280;23832;43.216;27.946;2022-08-11T11:07:51;100545.50;;;38.00;29.52
38022;BME280;23832;43.216;27.946;2022-08-11T11:10:00;100557.84;;;38.06;29.37
38022;BME280;23832;43.216;27.946;2022-08-11T11:12:24;100550.06;;;37.92;29.12
38022;BME280;23832;43.216;27.946;2022-08-11T11:14:44;100538.94;;;37.69;29.33
38022;BME280;23832;43.216;27.946;2022-08-11T11:17:05;100540.72;;;37.62;29.78
38022;BME280;23832;43.216;27.946;2022-08-11T11:19:27;100520.44;;;37.50;30.06
38022;BME280;23832;43.216;27.946;2022-08-11T11:21:32;100540.78;;;37.65;30.17
38022;BME280;23832;43.216;27.946;2022-08-11T11:23:39;100538.41;;;37.64;29.52
38022;BME280;23832;43.216;27.946;2022-08-11T11:26:26;100526.59;;;37.63;29.47
38022;BME280;23832;43.216;27.946;2022-08-11T11:28:53;100523.59;;;37.68;29.53
38022;BME280;23832;43.216;27.946;2022-08-11T11:31:10;100529.44;;;37.67;29.58
38022;BME280;23832;43.216;27.946;2022-08-11T11:33:21;100528.66;;;37.66;29.66
38022;BME280;23832;43.216;27.946;2022-08-11T11:35:36;100519.16;;;37.64;29.63
38022;BME280;23832;43.216;27.946;2022-08-11T11:37:45;100520.22;;;37.59;30.02
38022;BME280;23832;43.216;27.946;2022-08-11T11:39:51;100529.66;;;37.58;29.64
38022;BME280;23832;43.216;27.946;2022-08-11T11:42:00;100525.72;;;37.59;29.57
38022;BME280;23832;43.216;27.946;2022-08-11T11:44:05;100525.63;;;37.56;29.61
38022;BME280;23832;43.216;27.946;2022-08-11T11:46:08;100510.59;;;37.34;29.43
38022;BME280;23832;43.216;27.946;2022-08-11T11:48:13;100517.69;;;37.35;29.41
38022;BME280;23832;43.216;27.946;2022-08-11T11:50:15;100515.47;;;37.25;29.31
38022;BME280;23832;43.216;27.946;2022-08-11T11:52:20;100509.06;;;37.20;29.69
38022;BME280;23832;43.216;27.946;2022-08-11T11:54:24;100509.72;;;37.14;29.82
38022;BME280;23832;43.216;27.946;2022-08-11T11:56:27;100504.91;;;37.11;29.97
38022;BME280;23832;43.216;27.946;2022-08-11T11:58:30;100511.19;;;37.11;30.26
38022;BME280;23832;43.216;27.946;2022-08-11T12:00:52;100516.19;;;37.06;30.35
38022;BME280;23832;43.216;27.946;2022-08-11T12:03:14;100517.22;;;37.01;30.38
38022;BME280;23832;43.216;27.946;2022-08-11T12:05:17;100511.28;;;36.99;30.23
38022;BME280;23832;43.216;27.946;2022-08-11T12:07:20;100511.28;;;36.99;30.17